Chippewa Lake, Michigan
Current Conditions -  °F | °C
As of 4:55 AM on Sunday 21 Dec 2014 (Local Time) from KRQB Reporting Station
Haze Haze  
Wind Chill: 30°   Ceiling: 300
Heat Index: 30°   Visibility: 2mi
Dew Point: 30°   Wind: 0mph
Humidity: 100%   Direction: NA
Pressure: 30.22"   Gusts: NA
Location:  43.74°N, 85.3°W
Report Text: KRQB 210955Z AUTO 00000KT 2SM BR OVC003 M01/M01 A3022 RMK AO2 T10131013
Loading
Personal Weather Stations






























Interactive Weather Map New forecast layout! Learn more

10-Day Weather Forecast

Advertisements
Track Severe Weather on mobile